createdAt,value
2023-02-23T00:01:47.033Z,51.00
2023-02-23T00:04:13.733Z,50.80
2023-02-23T00:06:40.503Z,50.90
2023-02-23T00:09:15.276Z,51.00
2023-02-23T00:11:41.996Z,50.90
2023-02-23T00:14:08.842Z,51.00
2023-02-23T00:16:37.367Z,51.20
2023-02-23T00:19:07.906Z,51.00
2023-02-23T00:21:34.988Z,50.80
2023-02-23T00:24:08.815Z,51.10
2023-02-23T00:26:38.522Z,51.20
2023-02-23T00:29:07.690Z,51.40
2023-02-23T00:31:34.930Z,51.60
2023-02-23T00:34:03.347Z,51.60
2023-02-23T00:36:33.326Z,51.50
2023-02-23T00:39:05.808Z,51.70
2023-02-23T00:41:32.604Z,51.80
2023-02-23T00:44:00.751Z,52.00
2023-02-23T00:46:29.971Z,51.80
2023-02-23T00:48:58.304Z,51.90
2023-02-23T00:51:30.859Z,51.90
2023-02-23T00:53:59.447Z,51.90
2023-02-23T00:56:27.667Z,52.60
2023-02-23T00:58:55.284Z,52.00
2023-02-23T01:01:22.891Z,52.20
2023-02-23T01:03:49.662Z,52.30
2023-02-23T01:06:17.567Z,52.30
2023-02-23T01:08:50.472Z,52.30
2023-02-23T01:11:27.779Z,52.20
2023-02-23T01:13:56.982Z,52.20
2023-02-23T01:16:28.694Z,52.20
2023-02-23T01:18:57.590Z,52.40
2023-02-23T01:21:27.745Z,52.20
2023-02-23T01:23:55.356Z,52.20
2023-02-23T01:26:24.997Z,52.10
2023-02-23T01:28:53.684Z,52.10
2023-02-23T01:31:22.123Z,52.30
2023-02-23T01:33:52.760Z,52.40
2023-02-23T01:36:19.466Z,52.30
2023-02-23T01:38:46.187Z,52.50
2023-02-23T01:41:13.457Z,52.40
2023-02-23T01:44:00.171Z,52.50
2023-02-23T01:46:27.174Z,52.60
2023-02-23T01:48:56.402Z,52.70
2023-02-23T01:51:27.525Z,52.70
2023-02-23T01:54:07.992Z,52.90
2023-02-23T01:56:43.375Z,53.00
2023-02-23T01:59:12.371Z,52.90
2023-02-23T02:01:40.666Z,52.70
2023-02-23T02:04:08.868Z,52.80
2023-02-23T02:06:37.965Z,52.90
2023-02-23T02:09:10.280Z,53.40
2023-02-23T02:11:38.814Z,53.00
2023-02-23T02:14:22.313Z,53.00
2023-02-23T02:17:21.031Z,52.90
2023-02-23T02:20:05.365Z,53.00
2023-02-23T02:23:15.530Z,53.00
2023-02-23T02:26:03.720Z,53.00
2023-02-23T02:28:42.099Z,53.20
2023-02-23T02:31:36.265Z,53.10
2023-02-23T02:34:38.224Z,53.20
2023-02-23T02:37:33.201Z,53.00
2023-02-23T02:40:18.092Z,53.20
2023-02-23T02:43:11.508Z,53.00
2023-02-23T02:45:59.388Z,53.10
2023-02-23T02:48:46.492Z,52.80
2023-02-23T02:51:31.718Z,53.20
2023-02-23T02:54:15.108Z,53.20
2023-02-23T02:56:44.373Z,53.30
2023-02-23T02:59:33.392Z,53.20
2023-02-23T03:02:18.502Z,53.50
2023-02-23T03:05:03.822Z,53.40
2023-02-23T03:08:09.937Z,53.50
2023-02-23T03:11:16.773Z,53.40
2023-02-23T03:14:51.132Z,53.40
2023-02-23T03:18:20.754Z,53.40
2023-02-23T03:21:11.589Z,53.70
2023-02-23T03:24:26.075Z,53.50
2023-02-23T03:27:17.680Z,53.70
2023-02-23T03:30:09.298Z,53.50
2023-02-23T03:33:11.132Z,53.50
2023-02-23T03:36:31.287Z,53.80
2023-02-23T03:39:41.441Z,53.40
2023-02-23T03:42:33.115Z,53.90
2023-02-23T03:45:23.209Z,54.10
2023-02-23T03:48:09.730Z,53.90
2023-02-23T03:51:01.114Z,53.90
2023-02-23T03:54:07.934Z,54.60
2023-02-23T03:56:58.088Z,53.80
2023-02-23T03:59:48.085Z,53.70
2023-02-23T04:02:36.778Z,53.80
2023-02-23T04:05:29.017Z,53.80
2023-02-23T04:08:17.541Z,53.70
2023-02-23T04:11:13.200Z,53.90
2023-02-23T04:13:42.461Z,53.80
2023-02-23T04:16:10.223Z,54.10
2023-02-23T04:18:39.362Z,54.30
2023-02-23T04:21:06.860Z,54.00
2023-02-23T04:23:34.963Z,54.00
2023-02-23T04:26:01.761Z,53.90
2023-02-23T04:28:29.234Z,53.80
2023-02-23T04:30:56.181Z,53.80
2023-02-23T04:33:25.039Z,53.90
2023-02-23T04:35:55.247Z,53.90
2023-02-23T04:38:23.011Z,53.80
2023-02-23T04:40:50.059Z,54.00
2023-02-23T04:43:16.909Z,53.80
2023-02-23T04:45:44.834Z,54.10
2023-02-23T04:48:11.545Z,54.10
2023-02-23T04:50:39.633Z,54.10
2023-02-23T04:53:06.563Z,54.00
2023-02-23T04:55:33.512Z,54.10
2023-02-23T04:58:01.917Z,54.10
2023-02-23T05:00:29.564Z,54.20
2023-02-23T05:02:57.218Z,54.20
2023-02-23T05:05:23.995Z,54.20
2023-02-23T05:07:50.786Z,54.00
2023-02-23T05:10:17.519Z,54.30
2023-02-23T05:12:44.254Z,54.30
2023-02-23T05:15:11.356Z,54.30
2023-02-23T05:17:41.260Z,54.20
2023-02-23T05:20:10.319Z,54.20
2023-02-23T05:22:37.393Z,54.00
2023-02-23T05:25:04.852Z,54.30
2023-02-23T05:27:32.684Z,54.10
2023-02-23T05:29:59.405Z,54.20
2023-02-23T05:32:26.246Z,54.70
2023-02-23T05:34:53.051Z,54.70
2023-02-23T05:37:20.316Z,54.60
2023-02-23T05:39:47.729Z,54.60
2023-02-23T05:42:14.469Z,54.70
2023-02-23T05:44:41.161Z,54.40
2023-02-23T05:47:07.957Z,54.40
2023-02-23T05:49:34.753Z,54.50
2023-02-23T05:52:01.469Z,54.70
2023-02-23T05:54:28.184Z,54.40
2023-02-23T05:56:54.908Z,54.70
2023-02-23T05:59:21.618Z,54.40
2023-02-23T06:01:48.385Z,54.50
2023-02-23T06:04:15.153Z,54.40
2023-02-23T06:06:41.921Z,54.50
2023-02-23T06:09:08.616Z,54.60
2023-02-23T06:11:35.344Z,55.10
2023-02-23T06:14:02.050Z,54.80
2023-02-23T06:16:29.159Z,54.60
2023-02-23T06:18:56.128Z,54.80
2023-02-23T06:21:22.991Z,54.70
2023-02-23T06:23:49.738Z,54.60
2023-02-23T06:26:16.517Z,54.80
2023-02-23T06:28:43.265Z,54.60
2023-02-23T06:31:10.142Z,54.60
2023-02-23T06:33:36.935Z,54.80
2023-02-23T06:36:03.944Z,54.70
2023-02-23T06:38:30.703Z,54.60
2023-02-23T06:40:57.401Z,54.50
2023-02-23T06:43:24.130Z,54.60
2023-02-23T06:45:50.830Z,54.60
2023-02-23T06:48:17.697Z,54.30
2023-02-23T06:50:44.448Z,54.50
2023-02-23T06:53:11.173Z,54.40
2023-02-23T06:55:37.957Z,54.50
2023-02-23T06:58:07.163Z,55.30
2023-02-23T07:00:34.016Z,54.70
2023-02-23T07:03:00.891Z,54.90
2023-02-23T07:05:27.728Z,54.80
2023-02-23T07:07:54.471Z,54.70
2023-02-23T07:10:21.284Z,55.00
2023-02-23T07:12:48.082Z,54.80
2023-02-23T07:15:17.725Z,54.80
2023-02-23T07:17:46.061Z,55.30
2023-02-23T07:20:13.159Z,55.20
2023-02-23T07:22:40.115Z,54.90
2023-02-23T07:25:08.566Z,55.20
2023-02-23T07:27:35.745Z,55.00
2023-02-23T07:30:05.166Z,55.30
2023-02-23T07:32:32.112Z,55.30
2023-02-23T07:34:58.838Z,55.40
2023-02-23T07:37:25.599Z,55.30
2023-02-23T07:39:52.312Z,55.20
2023-02-23T07:42:19.013Z,56.00
2023-02-23T07:44:45.724Z,55.40
2023-02-23T07:47:12.491Z,55.40
2023-02-23T07:49:39.155Z,55.40
2023-02-23T07:52:05.948Z,55.40
2023-02-23T07:54:32.798Z,55.40
2023-02-23T07:57:00.303Z,55.60
2023-02-23T07:59:27.287Z,55.60
2023-02-23T08:01:54.017Z,55.50
2023-02-23T08:04:20.849Z,56.10
2023-02-23T08:06:47.638Z,55.60
2023-02-23T08:09:14.412Z,55.50
2023-02-23T08:11:41.255Z,55.70
2023-02-23T08:14:08.082Z,55.90
2023-02-23T08:16:34.899Z,55.90
2023-02-23T08:19:01.925Z,56.10
2023-02-23T08:21:29.587Z,56.10
2023-02-23T08:23:57.400Z,56.20
2023-02-23T08:26:25.533Z,56.10
2023-02-23T08:28:53.404Z,56.10
2023-02-23T08:31:24.180Z,56.20
2023-02-23T08:33:52.822Z,55.90
2023-02-23T08:36:20.923Z,56.20
2023-02-23T08:38:48.214Z,56.40
2023-02-23T08:41:15.221Z,56.30
2023-02-23T08:43:42.110Z,56.40
2023-02-23T08:46:08.932Z,56.40
2023-02-23T08:48:36.140Z,56.40
2023-02-23T08:51:02.886Z,56.50
2023-02-23T08:53:30.748Z,56.70
2023-02-23T08:56:02.114Z,57.20
2023-02-23T08:58:30.685Z,57.30
2023-02-23T09:00:58.392Z,56.90
2023-02-23T09:03:28.438Z,56.80
2023-02-23T09:05:56.345Z,56.80
2023-02-23T09:08:23.128Z,57.50
2023-02-23T09:10:49.896Z,56.80
2023-02-23T09:13:17.240Z,56.80
2023-02-23T09:15:44.019Z,57.10
2023-02-23T09:18:13.850Z,57.10
2023-02-23T09:20:44.563Z,57.30
2023-02-23T09:23:12.403Z,57.30
2023-02-23T09:25:43.388Z,57.60
2023-02-23T09:28:16.336Z,57.60
2023-02-23T09:30:45.396Z,57.80
2023-02-23T09:33:13.240Z,57.70
2023-02-23T09:35:41.333Z,58.30
2023-02-23T09:38:09.120Z,57.60
2023-02-23T09:40:47.752Z,57.70
2023-02-23T09:43:18.012Z,57.80
2023-02-23T09:45:58.764Z,57.80
2023-02-23T09:48:28.556Z,57.50
2023-02-23T09:50:57.386Z,57.90
2023-02-23T09:53:42.878Z,57.70
2023-02-23T09:56:25.321Z,57.80
2023-02-23T09:58:52.074Z,57.80
2023-02-23T10:01:30.583Z,57.40
2023-02-23T10:04:12.825Z,57.50
2023-02-23T10:06:43.278Z,57.80
2023-02-23T10:09:21.889Z,57.10
2023-02-23T10:12:29.150Z,57.00
2023-02-23T10:15:26.305Z,57.10
2023-02-23T10:18:04.146Z,57.90
2023-02-23T10:20:37.626Z,57.60
2023-02-23T10:23:09.802Z,57.60
2023-02-23T10:25:41.992Z,57.90
2023-02-23T10:28:16.774Z,57.60
2023-02-23T10:30:45.402Z,57.30
2023-02-23T10:33:22.525Z,57.70
2023-02-23T10:36:07.495Z,57.30
2023-02-23T10:38:39.132Z,57.10
2023-02-23T10:41:06.613Z,56.80
2023-02-23T10:43:33.570Z,56.80
2023-02-23T10:46:00.418Z,56.80
2023-02-23T10:48:32.262Z,57.00
2023-02-23T10:51:02.687Z,56.70
2023-02-23T10:53:35.730Z,56.90
2023-02-23T10:56:10.965Z,56.50
2023-02-23T10:58:46.558Z,56.60
2023-02-23T11:02:00.341Z,56.70
2023-02-23T11:04:30.914Z,56.90
2023-02-23T11:07:22.525Z,56.80
2023-02-23T11:09:51.551Z,56.90
2023-02-23T11:12:43.997Z,57.20
2023-02-23T11:15:50.817Z,57.10
2023-02-23T11:18:24.730Z,56.60
2023-02-23T11:20:52.093Z,56.70
2023-02-23T11:23:30.318Z,56.70
2023-02-23T11:26:00.423Z,56.80
2023-02-23T11:28:43.285Z,56.80
2023-02-23T11:31:17.606Z,56.90
2023-02-23T11:33:47.074Z,57.00
2023-02-23T11:36:37.264Z,57.50
2023-02-23T11:39:15.826Z,57.30
2023-02-23T11:41:43.063Z,57.30
2023-02-23T11:44:24.706Z,57.20
2023-02-23T11:46:52.201Z,57.30
2023-02-23T11:49:35.748Z,57.30
2023-02-23T11:52:03.180Z,57.40
2023-02-23T11:54:33.409Z,57.20
2023-02-23T11:57:02.688Z,57.30
2023-02-23T11:59:31.763Z,57.20
2023-02-23T12:02:22.431Z,57.10
2023-02-23T12:05:02.696Z,57.10
2023-02-23T12:07:46.397Z,57.30
2023-02-23T12:10:25.268Z,57.30
2023-02-23T12:13:13.816Z,57.30
2023-02-23T12:15:54.648Z,57.50
2023-02-23T12:18:31.822Z,57.10
2023-02-23T12:21:11.205Z,57.20
2023-02-23T12:23:42.145Z,57.10
2023-02-23T12:26:21.470Z,57.10
2023-02-23T12:29:00.214Z,57.20
2023-02-23T12:31:48.884Z,57.20
2023-02-23T12:34:25.794Z,57.30
2023-02-23T12:37:14.024Z,57.00
2023-02-23T12:39:44.851Z,57.00
2023-02-23T12:42:49.313Z,57.10
2023-02-23T12:45:23.318Z,57.00
2023-02-23T12:47:59.630Z,57.20
2023-02-23T12:50:31.571Z,57.00
2023-02-23T12:53:08.210Z,56.80
2023-02-23T12:55:47.256Z,56.60
2023-02-23T12:58:22.976Z,57.10
2023-02-23T13:01:12.708Z,56.80
2023-02-23T13:03:51.610Z,56.70
2023-02-23T13:06:36.708Z,56.80
2023-02-23T13:09:33.842Z,56.60
2023-02-23T13:12:06.313Z,56.70
2023-02-23T13:14:43.654Z,56.80
2023-02-23T13:17:42.841Z,56.70
2023-02-23T13:20:27.605Z,57.00
2023-02-23T13:23:00.277Z,57.00
2023-02-23T13:25:49.440Z,57.00
2023-02-23T13:28:21.817Z,56.80
2023-02-23T13:30:48.836Z,56.60
2023-02-23T13:33:34.993Z,57.00
2023-02-23T13:36:09.154Z,56.80
2023-02-23T13:39:19.143Z,56.70
2023-02-23T13:42:16.458Z,56.50
2023-02-23T13:44:52.289Z,56.60
2023-02-23T13:47:38.400Z,56.60
2023-02-23T13:50:10.682Z,56.60
2023-02-23T13:52:43.251Z,56.70
2023-02-23T13:55:34.633Z,57.00
2023-02-23T13:58:17.289Z,56.70
2023-02-23T14:00:44.614Z,56.80
2023-02-23T14:03:24.458Z,56.70
2023-02-23T14:05:57.319Z,56.40
2023-02-23T14:08:34.749Z,56.70
2023-02-23T14:11:02.146Z,56.70
2023-02-23T14:13:34.773Z,56.70
2023-02-23T14:16:17.175Z,56.70
2023-02-23T14:18:53.402Z,56.50
2023-02-23T14:21:29.068Z,56.60
2023-02-23T14:24:03.112Z,56.70
2023-02-23T14:26:29.826Z,56.70
2023-02-23T14:29:14.242Z,56.60
2023-02-23T14:32:05.010Z,56.70
2023-02-23T14:35:01.466Z,56.90
2023-02-23T14:37:37.844Z,56.90
2023-02-23T14:40:29.341Z,56.60
2023-02-23T14:42:59.049Z,56.60
2023-02-23T14:45:28.989Z,56.50
2023-02-23T14:48:05.549Z,56.50
2023-02-23T14:50:35.248Z,56.70
2023-02-23T14:53:04.745Z,56.70
2023-02-23T14:55:35.433Z,56.70
2023-02-23T14:58:03.001Z,56.80
2023-02-23T15:00:33.064Z,56.60
2023-02-23T15:03:01.379Z,56.80
2023-02-23T15:05:43.178Z,56.80
2023-02-23T15:08:15.827Z,57.00
2023-02-23T15:10:45.114Z,56.70
2023-02-23T15:16:06.162Z,56.40
2023-02-23T15:18:38.846Z,56.80
2023-02-23T15:21:17.595Z,56.60
2023-02-23T15:23:46.016Z,56.90
2023-02-23T15:26:31.875Z,56.80
2023-02-23T15:29:10.831Z,56.60
2023-02-23T15:31:40.782Z,56.70
2023-02-23T15:34:11.369Z,56.90
2023-02-23T15:36:41.173Z,57.00
2023-02-23T15:39:13.625Z,56.80
2023-02-23T15:41:42.645Z,56.70
2023-02-23T15:44:14.338Z,56.70
2023-02-23T15:46:43.798Z,56.50
2023-02-23T15:49:14.333Z,55.90
2023-02-23T15:51:48.916Z,55.90
2023-02-23T15:54:59.913Z,55.60
2023-02-23T15:57:32.922Z,55.60
2023-02-23T16:00:10.270Z,55.90
2023-02-23T16:02:37.755Z,55.90
2023-02-23T16:05:23.158Z,56.00
2023-02-23T16:08:22.645Z,56.20
2023-02-23T16:10:52.074Z,56.00
2023-02-23T16:13:21.970Z,56.40
2023-02-23T16:15:49.996Z,56.90
2023-02-23T16:18:21.769Z,56.80
2023-02-23T16:20:58.106Z,56.60
2023-02-23T16:23:34.016Z,56.80
2023-02-23T16:26:12.431Z,56.50
2023-02-23T16:28:45.229Z,56.90
2023-02-23T16:31:14.656Z,56.70
2023-02-23T16:33:44.943Z,56.60
2023-02-23T16:36:11.796Z,56.60
2023-02-23T16:38:52.842Z,56.90
2023-02-23T16:41:22.105Z,56.80
2023-02-23T16:43:50.750Z,56.90
2023-02-23T16:46:18.856Z,56.70
2023-02-23T16:48:45.972Z,56.90
2023-02-23T16:51:18.692Z,56.90
2023-02-23T16:53:46.221Z,56.80
2023-02-23T16:56:16.919Z,56.70
2023-02-23T16:58:47.176Z,57.00
2023-02-23T17:01:17.878Z,57.00
2023-02-23T17:03:52.774Z,56.90
2023-02-23T17:06:32.312Z,57.00
2023-02-23T17:08:59.048Z,57.00
2023-02-23T17:11:26.560Z,57.00
2023-02-23T17:13:53.357Z,57.00
2023-02-23T17:16:20.446Z,57.00
2023-02-23T17:18:47.429Z,57.00
2023-02-23T17:21:23.610Z,56.90
2023-02-23T17:23:52.291Z,56.80
2023-02-23T17:26:22.035Z,56.70
2023-02-23T17:28:48.805Z,57.20
2023-02-23T17:31:17.600Z,57.20
2023-02-23T17:33:45.141Z,57.50
2023-02-23T17:36:14.977Z,57.70
2023-02-23T17:38:44.195Z,57.80
2023-02-23T17:41:15.819Z,57.60
2023-02-23T17:43:42.928Z,57.80
2023-02-23T17:46:10.720Z,57.60
2023-02-23T17:48:37.601Z,57.60
2023-02-23T17:51:08.671Z,57.60
2023-02-23T17:53:36.123Z,57.70
2023-02-23T17:56:02.999Z,57.80
2023-02-23T17:58:30.604Z,57.90
2023-02-23T18:00:59.672Z,57.90
2023-02-23T18:03:31.848Z,58.00
2023-02-23T18:06:12.845Z,58.20
2023-02-23T18:08:41.943Z,58.10
2023-02-23T18:11:09.497Z,58.20
2023-02-23T18:13:36.667Z,58.00
2023-02-23T18:16:09.798Z,58.20
2023-02-23T18:18:38.824Z,57.90
2023-02-23T18:21:13.982Z,57.80
2023-02-23T18:23:40.744Z,58.20
2023-02-23T18:26:14.457Z,58.20
2023-02-23T18:28:44.323Z,58.00
2023-02-23T18:31:28.085Z,58.10
2023-02-23T18:33:56.633Z,58.10
2023-02-23T18:36:31.437Z,58.40
2023-02-23T18:38:59.630Z,58.10
2023-02-23T18:41:31.092Z,57.90
2023-02-23T18:43:59.696Z,58.30
2023-02-23T18:46:26.537Z,58.00
2023-02-23T18:48:54.574Z,58.30
2023-02-23T18:51:23.012Z,58.50
2023-02-23T18:53:50.748Z,58.30
2023-02-23T18:56:23.055Z,58.30
2023-02-23T18:58:51.940Z,58.30
2023-02-23T19:01:21.928Z,58.30
2023-02-23T19:03:50.683Z,58.50
2023-02-23T19:06:19.224Z,58.20
2023-02-23T19:08:54.042Z,58.00
2023-02-23T19:11:24.070Z,58.20
2023-02-23T19:13:52.221Z,58.20
2023-02-23T19:16:19.876Z,58.00
2023-02-23T19:18:47.407Z,58.00
2023-02-23T19:21:15.950Z,57.80
2023-02-23T19:23:44.537Z,57.90
2023-02-23T19:26:12.688Z,57.80
2023-02-23T19:28:39.408Z,57.80
2023-02-23T19:31:14.324Z,57.50
2023-02-23T19:33:41.621Z,57.60
2023-02-23T19:36:14.071Z,57.30
2023-02-23T19:38:44.289Z,57.10
2023-02-23T19:41:13.607Z,57.40
2023-02-23T19:43:40.523Z,57.20
2023-02-23T19:46:10.312Z,57.20
2023-02-23T19:48:37.517Z,57.20
2023-02-23T19:51:05.610Z,56.70
2023-02-23T19:53:32.867Z,56.70
2023-02-23T19:56:01.062Z,56.90
2023-02-23T19:58:28.071Z,57.00
2023-02-23T20:00:58.487Z,57.00
2023-02-23T20:03:28.951Z,56.90
2023-02-23T20:05:56.503Z,57.00
2023-02-23T20:08:24.843Z,57.00
2023-02-23T20:10:52.413Z,56.60
2023-02-23T20:13:21.355Z,56.20
2023-02-23T20:15:48.093Z,56.00
2023-02-23T20:18:14.855Z,56.30
2023-02-23T20:20:41.828Z,56.10
2023-02-23T20:23:08.953Z,56.10
2023-02-23T20:25:36.122Z,55.90
2023-02-23T20:28:03.792Z,55.60
2023-02-23T20:30:30.649Z,55.00
2023-02-23T20:32:57.494Z,55.40
2023-02-23T20:35:26.134Z,55.20
2023-02-23T20:37:53.972Z,55.20
2023-02-23T20:40:23.045Z,55.40
2023-02-23T20:42:51.541Z,55.30
2023-02-23T20:45:21.562Z,55.30
2023-02-23T20:47:53.152Z,55.10
2023-02-23T20:50:22.444Z,55.10
2023-02-23T20:52:49.719Z,54.90
2023-02-23T20:55:18.713Z,54.80
2023-02-23T20:57:47.206Z,54.90
2023-02-23T21:00:20.171Z,54.80
2023-02-23T21:02:46.939Z,54.90
2023-02-23T21:05:14.508Z,55.00
2023-02-23T21:07:41.841Z,54.90
2023-02-23T21:10:10.484Z,55.10
2023-02-23T21:12:37.274Z,55.30
2023-02-23T21:15:05.022Z,55.40
2023-02-23T21:17:31.853Z,55.20
2023-02-23T21:19:58.590Z,55.40
2023-02-23T21:22:25.248Z,55.60
2023-02-23T21:24:52.146Z,55.60
2023-02-23T21:27:18.944Z,55.60
2023-02-23T21:29:45.954Z,55.60
2023-02-23T21:32:13.991Z,55.70
2023-02-23T21:34:41.209Z,55.90
2023-02-23T21:37:08.012Z,56.00
2023-02-23T21:39:35.164Z,56.40
2023-02-23T21:42:01.878Z,56.60
2023-02-23T21:44:28.606Z,55.90
2023-02-23T21:46:55.419Z,56.10
2023-02-23T21:49:22.205Z,56.00
2023-02-23T21:51:48.898Z,56.10
2023-02-23T21:54:15.723Z,56.40
2023-02-23T21:56:42.527Z,56.60
2023-02-23T21:59:09.297Z,56.20
2023-02-23T22:01:38.294Z,56.30
2023-02-23T22:04:07.319Z,56.10
2023-02-23T22:06:40.196Z,56.10
2023-02-23T22:09:12.658Z,56.00
2023-02-23T22:11:44.230Z,56.00
2023-02-23T22:14:11.342Z,55.90
2023-02-23T22:16:41.773Z,56.60
2023-02-23T22:19:09.330Z,55.90
2023-02-23T22:21:39.432Z,55.80
2023-02-23T22:24:06.707Z,56.70
2023-02-23T22:26:37.784Z,56.60
2023-02-23T22:29:06.785Z,56.60
2023-02-23T22:31:34.046Z,56.70
2023-02-23T22:34:00.905Z,55.80
2023-02-23T22:36:29.308Z,55.50
2023-02-23T22:38:59.412Z,55.00
2023-02-23T22:41:29.501Z,54.90
2023-02-23T22:43:56.929Z,54.90
2023-02-23T22:46:24.609Z,55.40
2023-02-23T22:48:51.433Z,54.50
2023-02-23T22:51:21.638Z,55.20
2023-02-23T22:53:48.462Z,54.60
2023-02-23T22:56:15.279Z,54.10
2023-02-23T22:58:42.356Z,54.00
2023-02-23T23:01:11.375Z,53.80
2023-02-23T23:03:48.284Z,53.70
2023-02-23T23:06:22.007Z,53.70
2023-02-23T23:08:53.498Z,53.60
2023-02-23T23:11:23.170Z,53.30
2023-02-23T23:13:57.635Z,53.30
2023-02-23T23:16:32.216Z,53.40
2023-02-23T23:19:05.104Z,53.70
2023-02-23T23:21:34.036Z,54.20
2023-02-23T23:24:05.473Z,53.40
2023-02-23T23:26:34.573Z,54.30
2023-02-23T23:29:04.703Z,53.40
2023-02-23T23:31:34.710Z,54.30
2023-02-23T23:34:07.193Z,54.30
2023-02-23T23:36:42.962Z,53.40
2023-02-23T23:39:13.981Z,53.50
2023-02-23T23:41:42.903Z,54.40
2023-02-23T23:44:10.708Z,54.50
2023-02-23T23:46:42.618Z,54.40
2023-02-23T23:49:15.864Z,54.50
2023-02-23T23:51:50.069Z,54.40
2023-02-23T23:54:42.726Z,54.80
2023-02-23T23:57:11.508Z,55.00
2023-02-23T23:59:45.726Z,55.30
